createdAt,value
2023-01-12T00:00:49.418Z,8.61
2023-01-12T00:01:49.418Z,8.55
2023-01-12T00:02:49.392Z,8.60
2023-01-12T00:03:49.378Z,8.55
2023-01-12T00:04:49.379Z,8.60
2023-01-12T00:05:49.352Z,8.60
2023-01-12T00:06:49.359Z,8.56
2023-01-12T00:07:49.327Z,8.61
2023-01-12T00:08:49.315Z,8.52
2023-01-12T00:09:49.347Z,8.58
2023-01-12T00:10:49.283Z,8.58
2023-01-12T00:11:49.285Z,8.63
2023-01-12T00:12:49.263Z,8.66
2023-01-12T00:13:49.257Z,8.69
2023-01-12T00:14:49.235Z,8.74
2023-01-12T00:15:49.236Z,8.74
2023-01-12T00:16:49.225Z,8.74
2023-01-12T00:17:49.193Z,8.73
2023-01-12T00:18:49.184Z,8.70
2023-01-12T00:19:49.165Z,8.70
2023-01-12T00:20:49.158Z,8.79
2023-01-12T00:21:49.160Z,8.82
2023-01-12T00:22:49.131Z,8.81
2023-01-12T00:23:49.112Z,8.81
2023-01-12T00:24:49.099Z,8.74
2023-01-12T00:25:49.114Z,8.79
2023-01-12T00:26:49.101Z,8.76
2023-01-12T00:27:49.063Z,8.81
2023-01-12T00:28:49.064Z,8.76
2023-01-12T00:29:49.056Z,8.74
2023-01-12T00:30:49.028Z,8.76
2023-01-12T00:31:49.032Z,8.81
2023-01-12T00:32:49.003Z,8.78
2023-01-12T00:33:48.984Z,8.78
2023-01-12T00:34:48.990Z,8.79
2023-01-12T00:35:48.971Z,8.82
2023-01-12T00:36:48.949Z,8.87
2023-01-12T00:37:48.959Z,8.78
2023-01-12T00:38:48.922Z,8.85
2023-01-12T00:40:01.461Z,8.84
2023-01-12T00:40:49.899Z,8.85
2023-01-12T00:41:48.913Z,8.78
2023-01-12T00:42:48.886Z,8.81
2023-01-12T00:43:48.861Z,8.82
2023-01-12T00:44:48.859Z,8.81
2023-01-12T00:45:48.838Z,8.81
2023-01-12T00:46:48.817Z,8.79
2023-01-12T00:47:48.816Z,8.76
2023-01-12T00:48:48.809Z,8.74
2023-01-12T00:49:48.774Z,8.79
2023-01-12T00:50:48.765Z,8.79
2023-01-12T00:51:48.747Z,8.76
2023-01-12T00:52:48.771Z,8.84
2023-01-12T00:53:48.728Z,8.84
2023-01-12T00:54:48.733Z,8.85
2023-01-12T00:55:48.699Z,8.84
2023-01-12T00:56:48.686Z,8.85
2023-01-12T00:57:48.709Z,8.87
2023-01-12T00:58:48.661Z,8.82
2023-01-12T00:59:48.648Z,8.88
2023-01-12T01:00:48.638Z,8.82
2023-01-12T01:01:48.704Z,8.81
2023-01-12T01:02:48.710Z,8.79
2023-01-12T01:03:48.597Z,8.81
2023-01-12T01:04:48.588Z,8.88
2023-01-12T01:05:48.579Z,8.94
2023-01-12T01:06:48.557Z,8.92
2023-01-12T01:07:48.563Z,8.92
2023-01-12T01:08:48.539Z,8.95
2023-01-12T01:09:48.522Z,8.99
2023-01-12T01:10:48.505Z,9.00
2023-01-12T01:11:48.489Z,8.95
2023-01-12T01:12:48.497Z,8.97
2023-01-12T01:13:48.484Z,8.94
2023-01-12T01:14:48.467Z,8.97
2023-01-12T01:15:48.454Z,8.99
2023-01-12T01:16:48.430Z,9.08
2023-01-12T01:17:48.434Z,9.08
2023-01-12T01:18:48.400Z,9.04
2023-01-12T01:19:48.396Z,9.03
2023-01-12T01:20:48.375Z,9.02
2023-01-12T01:21:48.362Z,9.03
2023-01-12T01:22:48.362Z,9.02
2023-01-12T01:23:48.344Z,9.10
2023-01-12T01:24:48.324Z,9.18
2023-01-12T01:25:48.329Z,9.19
2023-01-12T01:26:48.296Z,9.28
2023-01-12T01:27:48.295Z,9.23
2023-01-12T01:28:48.272Z,9.21
2023-01-12T01:29:48.278Z,9.22
2023-01-12T01:30:48.349Z,9.22
2023-01-12T01:31:48.231Z,9.23
2023-01-12T01:32:48.229Z,9.23
2023-01-12T01:33:48.207Z,9.23
2023-01-12T01:34:48.219Z,9.19
2023-01-12T01:35:48.178Z,9.19
2023-01-12T01:36:48.164Z,9.25
2023-01-12T01:37:48.167Z,9.26
2023-01-12T01:38:48.143Z,9.26
2023-01-12T01:39:48.125Z,9.32
2023-01-12T01:40:48.112Z,9.32
2023-01-12T01:41:48.166Z,9.36
2023-01-12T01:42:48.101Z,9.37
2023-01-12T01:43:48.081Z,9.48
2023-01-12T01:44:48.066Z,9.47
2023-01-12T01:45:48.074Z,9.46
2023-01-12T01:46:48.060Z,9.37
2023-01-12T01:47:48.040Z,9.41
2023-01-12T01:48:48.025Z,9.32
2023-01-12T01:49:47.996Z,9.40
2023-01-12T01:50:47.984Z,9.36
2023-01-12T01:51:47.973Z,9.39
2023-01-12T01:52:47.972Z,9.40
2023-01-12T01:53:47.962Z,9.44
2023-01-12T01:54:47.931Z,9.41
2023-01-12T01:55:47.921Z,9.40
2023-01-12T01:56:47.925Z,9.41
2023-01-12T01:57:47.905Z,9.43
2023-01-12T01:58:47.895Z,9.47
2023-01-12T01:59:47.868Z,9.39
2023-01-12T02:00:47.858Z,9.43
2023-01-12T02:01:47.911Z,9.41
2023-01-12T02:02:47.936Z,9.40
2023-01-12T02:03:47.837Z,9.41
2023-01-12T02:04:47.807Z,9.44
2023-01-12T02:05:47.792Z,9.47
2023-01-12T02:06:47.777Z,9.43
2023-01-12T02:07:47.770Z,9.43
2023-01-12T02:08:47.765Z,9.44
2023-01-12T02:09:47.741Z,9.44
2023-01-12T02:10:47.723Z,9.50
2023-01-12T02:11:47.720Z,9.44
2023-01-12T02:12:47.702Z,9.46
2023-01-12T02:13:47.701Z,9.46
2023-01-12T02:14:47.681Z,9.46
2023-01-12T02:15:47.759Z,9.47
2023-01-12T02:16:47.646Z,9.46
2023-01-12T02:17:47.667Z,9.41
2023-01-12T02:18:47.644Z,9.44
2023-01-12T02:19:47.612Z,9.43
2023-01-12T02:20:47.597Z,9.41
2023-01-12T02:21:47.580Z,9.44
2023-01-12T02:22:47.567Z,9.46
2023-01-12T02:23:47.577Z,9.46
2023-01-12T02:24:47.547Z,9.48
2023-01-12T02:25:47.537Z,9.55
2023-01-12T02:26:47.527Z,9.50
2023-01-12T02:27:47.512Z,9.51
2023-01-12T02:28:47.515Z,9.50
2023-01-12T02:29:47.485Z,9.50
2023-01-12T02:30:47.499Z,9.44
2023-01-12T02:31:47.456Z,9.40
2023-01-12T02:32:47.441Z,9.37
2023-01-12T02:33:47.463Z,9.37
2023-01-12T02:34:47.426Z,9.40
2023-01-12T02:35:47.404Z,9.37
2023-01-12T02:36:47.391Z,9.37
2023-01-12T02:37:47.380Z,9.39
2023-01-12T02:38:47.378Z,9.34
2023-01-12T02:39:47.351Z,9.29
2023-01-12T02:40:47.338Z,9.26
2023-01-12T02:41:47.328Z,9.25
2023-01-12T02:42:47.369Z,9.31
2023-01-12T02:43:47.318Z,9.26
2023-01-12T02:44:47.288Z,9.29
2023-01-12T02:45:47.272Z,9.23
2023-01-12T02:46:47.313Z,9.28
2023-01-12T02:47:47.246Z,9.25
2023-01-12T02:48:47.270Z,9.22
2023-01-12T02:49:47.242Z,9.19
2023-01-12T02:50:47.218Z,9.19
2023-01-12T02:51:47.223Z,9.29
2023-01-12T02:52:47.186Z,9.26
2023-01-12T02:53:47.209Z,9.23
2023-01-12T02:54:47.167Z,9.23
2023-01-12T02:55:47.161Z,9.29
2023-01-12T02:56:47.133Z,9.25
2023-01-12T02:57:47.121Z,9.22
2023-01-12T02:58:47.123Z,9.22
2023-01-12T02:59:47.094Z,9.23
2023-01-12T03:00:47.102Z,9.21
2023-01-12T03:01:47.116Z,9.21
2023-01-12T03:02:47.086Z,9.23
2023-01-12T03:03:47.113Z,9.26
2023-01-12T03:04:47.032Z,9.23
2023-01-12T03:05:47.045Z,9.19
2023-01-12T03:06:47.008Z,9.19
2023-01-12T03:07:46.990Z,9.18
2023-01-12T03:08:46.975Z,9.19
2023-01-12T03:09:46.983Z,9.19
2023-01-12T03:10:46.947Z,9.19
2023-01-12T03:11:46.934Z,9.19
2023-01-12T03:12:46.931Z,9.21
2023-01-12T03:13:46.911Z,9.16
2023-01-12T03:14:46.910Z,9.19
2023-01-12T03:15:46.921Z,9.13
2023-01-12T03:16:46.878Z,9.13
2023-01-12T03:17:46.858Z,9.23
2023-01-12T03:18:46.845Z,9.16
2023-01-12T03:19:46.849Z,9.22
2023-01-12T03:20:46.822Z,9.18
2023-01-12T03:21:46.958Z,9.21
2023-01-12T03:22:46.794Z,9.16
2023-01-12T03:23:46.784Z,9.11
2023-01-12T03:24:46.782Z,9.14
2023-01-12T03:25:46.756Z,9.14
2023-01-12T03:26:46.757Z,9.18
2023-01-12T03:27:46.731Z,9.11
2023-01-12T03:28:46.718Z,9.14
2023-01-12T03:29:46.722Z,9.21
2023-01-12T03:30:46.707Z,9.21
2023-01-12T03:31:46.771Z,9.21
2023-01-12T03:32:46.675Z,9.16
2023-01-12T03:33:46.653Z,9.25
2023-01-12T03:34:46.652Z,9.21
2023-01-12T03:35:46.621Z,9.21
2023-01-12T03:36:46.641Z,9.25
2023-01-12T03:37:46.625Z,9.23
2023-01-12T03:38:46.591Z,9.22
2023-01-12T03:39:46.602Z,9.19
2023-01-12T03:40:46.571Z,9.21
2023-01-12T03:41:46.553Z,9.22
2023-01-12T03:42:46.535Z,9.23
2023-01-12T03:43:46.527Z,9.22
2023-01-12T03:44:46.525Z,9.23
2023-01-12T03:45:46.506Z,9.21
2023-01-12T03:46:46.525Z,9.23
2023-01-12T03:47:46.500Z,9.23
2023-01-12T03:48:46.457Z,9.25
2023-01-12T03:49:46.465Z,9.26
2023-01-12T03:50:46.432Z,9.32
2023-01-12T03:51:46.426Z,9.34
2023-01-12T03:52:46.402Z,9.39
2023-01-12T03:53:46.503Z,9.36
2023-01-12T03:54:46.403Z,9.43
2023-01-12T03:55:46.369Z,9.39
2023-01-12T03:56:46.355Z,9.43
2023-01-12T03:57:46.376Z,9.44
2023-01-12T03:58:46.342Z,9.41
2023-01-12T03:59:46.341Z,9.39
2023-01-12T04:00:46.406Z,9.37
2023-01-12T04:01:46.444Z,9.39
2023-01-12T04:02:46.282Z,9.46
2023-01-12T04:03:46.280Z,9.39
2023-01-12T04:04:46.269Z,9.40
2023-01-12T04:05:46.244Z,9.44
2023-01-12T04:06:46.231Z,9.46
2023-01-12T04:07:46.215Z,9.48
2023-01-12T04:08:46.208Z,9.46
2023-01-12T04:09:46.224Z,9.46
2023-01-12T04:10:46.178Z,9.44
2023-01-12T04:11:46.165Z,9.48
2023-01-12T04:12:46.159Z,9.51
2023-01-12T04:13:46.139Z,9.50
2023-01-12T04:14:48.107Z,9.48
2023-01-12T04:15:46.118Z,9.56
2023-01-12T04:16:46.107Z,9.58
2023-01-12T04:17:46.090Z,9.55
2023-01-12T04:18:46.078Z,9.59
2023-01-12T04:19:46.085Z,9.50
2023-01-12T04:20:46.047Z,9.54
2023-01-12T04:21:46.044Z,9.56
2023-01-12T04:22:46.048Z,9.55
2023-01-12T04:23:46.015Z,9.59
2023-01-12T04:24:46.027Z,9.55
2023-01-12T04:25:46.013Z,9.50
2023-01-12T04:26:45.982Z,9.54
2023-01-12T04:27:45.963Z,9.51
2023-01-12T04:28:45.948Z,9.47
2023-01-12T04:29:45.951Z,9.44
2023-01-12T04:30:45.923Z,9.39
2023-01-12T04:31:45.927Z,9.36
2023-01-12T04:32:45.911Z,9.41
2023-01-12T04:33:45.883Z,9.44
2023-01-12T04:34:45.896Z,9.40
2023-01-12T04:35:45.860Z,9.36
2023-01-12T04:36:45.849Z,9.36
2023-01-12T04:37:45.848Z,9.31
2023-01-12T04:38:45.823Z,9.25
2023-01-12T04:39:45.835Z,9.25
2023-01-12T04:40:45.803Z,9.31
2023-01-12T04:41:45.799Z,9.22
2023-01-12T04:42:45.773Z,9.18
2023-01-12T04:43:45.759Z,9.11
2023-01-12T04:44:45.749Z,9.16
2023-01-12T04:45:45.794Z,9.14
2023-01-12T04:46:45.719Z,9.19
2023-01-12T04:47:45.708Z,9.21
2023-01-12T04:48:45.695Z,9.22
2023-01-12T04:49:45.682Z,9.18
2023-01-12T04:50:45.705Z,9.18
2023-01-12T04:51:45.660Z,9.21
2023-01-12T04:52:45.645Z,9.16
2023-01-12T04:53:45.634Z,9.16
2023-01-12T04:54:45.636Z,9.18
2023-01-12T04:55:45.630Z,9.21
2023-01-12T04:56:45.601Z,9.21
2023-01-12T04:57:45.605Z,9.22
2023-01-12T04:58:45.566Z,9.31
2023-01-12T04:59:45.560Z,9.32
2023-01-12T05:00:45.620Z,9.37
2023-01-12T05:01:45.569Z,9.37
2023-01-12T05:02:45.512Z,9.32
2023-01-12T05:03:45.657Z,9.34
2023-01-12T05:04:45.487Z,9.32
2023-01-12T05:05:45.492Z,9.31
2023-01-12T05:06:45.468Z,9.34
2023-01-12T05:07:45.451Z,9.34
2023-01-12T05:08:45.451Z,9.31
2023-01-12T05:09:45.430Z,9.29
2023-01-12T05:10:45.435Z,9.32
2023-01-12T05:11:45.406Z,9.37
2023-01-12T05:12:45.392Z,9.32
2023-01-12T05:13:45.459Z,9.37
2023-01-12T05:14:45.361Z,9.36
2023-01-12T05:15:45.366Z,9.39
2023-01-12T05:16:45.400Z,9.37
2023-01-12T05:17:45.329Z,9.40
2023-01-12T05:18:45.327Z,9.37
2023-01-12T05:19:45.302Z,9.40
2023-01-12T05:20:45.306Z,9.43
2023-01-12T05:21:45.275Z,9.41
2023-01-12T05:22:45.275Z,9.43
2023-01-12T05:23:45.258Z,9.51
2023-01-12T05:24:45.239Z,9.47
2023-01-12T05:25:45.242Z,9.43
2023-01-12T05:26:45.225Z,9.40
2023-01-12T05:27:45.200Z,9.37
2023-01-12T05:28:45.201Z,9.39
2023-01-12T05:29:45.196Z,9.37
2023-01-12T05:30:45.344Z,9.34
2023-01-12T05:31:45.162Z,9.37
2023-01-12T05:32:45.137Z,9.37
2023-01-12T05:33:45.123Z,9.40
2023-01-12T05:34:45.149Z,9.37
2023-01-12T05:35:45.108Z,9.39
2023-01-12T05:36:45.084Z,9.39
2023-01-12T05:37:45.072Z,9.36
2023-01-12T05:38:45.060Z,9.47
2023-01-12T05:39:45.064Z,9.46
2023-01-12T05:40:45.049Z,9.48
2023-01-12T05:41:45.024Z,9.44
2023-01-12T05:42:45.011Z,9.40
2023-01-12T05:43:44.991Z,9.43
2023-01-12T05:44:44.978Z,9.41
2023-01-12T05:45:45.162Z,9.40
2023-01-12T05:46:44.961Z,9.40
2023-01-12T05:47:44.944Z,9.44
2023-01-12T05:48:44.949Z,9.43
2023-01-12T05:49:44.922Z,9.40
2023-01-12T05:50:44.927Z,9.39
2023-01-12T05:51:44.895Z,9.41
2023-01-12T05:52:44.886Z,9.43
2023-01-12T05:53:44.866Z,9.40
2023-01-12T05:54:44.855Z,9.39
2023-01-12T05:55:44.859Z,9.39
2023-01-12T05:56:44.829Z,9.36
2023-01-12T05:57:44.815Z,9.37
2023-01-12T05:58:44.804Z,9.40
2023-01-12T05:59:44.800Z,9.40
2023-01-12T06:00:44.779Z,9.40
2023-01-12T06:01:44.808Z,9.41
2023-01-12T06:02:44.752Z,9.37
2023-01-12T06:03:44.744Z,9.34
2023-01-12T06:04:44.785Z,9.39
2023-01-12T06:05:44.714Z,9.40
2023-01-12T06:06:44.715Z,9.44
2023-01-12T06:07:44.709Z,9.43
2023-01-12T06:08:44.678Z,9.44
2023-01-12T06:09:44.674Z,9.44
2023-01-12T06:10:44.646Z,9.47
2023-01-12T06:11:44.648Z,9.46
2023-01-12T06:12:44.628Z,9.47
2023-01-12T06:13:44.614Z,9.50
2023-01-12T06:14:44.605Z,9.48
2023-01-12T06:15:44.664Z,9.50
2023-01-12T06:16:44.602Z,9.48
2023-01-12T06:17:44.588Z,9.50
2023-01-12T06:18:44.547Z,9.51
2023-01-12T06:19:44.535Z,9.55
2023-01-12T06:20:44.522Z,9.51
2023-01-12T06:21:44.540Z,9.48
2023-01-12T06:22:44.504Z,9.51
2023-01-12T06:23:44.485Z,9.54
2023-01-12T06:24:44.470Z,9.51
2023-01-12T06:25:44.463Z,9.47
2023-01-12T06:26:44.467Z,9.48
2023-01-12T06:27:44.431Z,9.46
2023-01-12T06:28:44.419Z,9.50
2023-01-12T06:29:44.408Z,9.51
2023-01-12T06:30:44.439Z,9.54
2023-01-12T06:31:44.395Z,9.56
2023-01-12T06:32:44.373Z,9.51
2023-01-12T06:33:44.376Z,9.50
2023-01-12T06:34:44.344Z,9.46
2023-01-12T06:35:44.327Z,9.48
2023-01-12T06:36:44.333Z,9.43
2023-01-12T06:37:44.301Z,9.40
2023-01-12T06:38:44.303Z,9.32
2023-01-12T06:39:44.278Z,9.37
2023-01-12T06:40:44.271Z,9.40
2023-01-12T06:41:44.498Z,9.39
2023-01-12T06:42:44.241Z,9.34
2023-01-12T06:43:44.228Z,9.32
2023-01-12T06:44:44.226Z,9.29
2023-01-12T06:45:44.209Z,9.26
2023-01-12T06:46:44.216Z,9.22
2023-01-12T06:47:44.175Z,9.11
2023-01-12T06:48:44.167Z,9.06
2023-01-12T06:49:44.175Z,9.03
2023-01-12T06:50:44.140Z,8.97
2023-01-12T06:51:44.141Z,8.94
2023-01-12T06:52:44.122Z,8.92
2023-01-12T06:53:44.099Z,8.94
2023-01-12T06:54:44.087Z,8.87
2023-01-12T06:55:44.075Z,8.84
2023-01-12T06:56:44.077Z,8.74
2023-01-12T06:57:44.057Z,8.70
2023-01-12T06:58:44.040Z,8.67
2023-01-12T06:59:44.029Z,8.66
2023-01-12T07:00:44.013Z,8.56
2023-01-12T07:01:44.141Z,8.53
2023-01-12T07:02:44.001Z,8.58
2023-01-12T07:03:43.970Z,8.55
2023-01-12T07:04:44.025Z,8.58
2023-01-12T07:05:43.965Z,8.55
2023-01-12T07:06:43.939Z,8.49
2023-01-12T07:07:43.942Z,8.51
2023-01-12T07:08:43.908Z,8.51
2023-01-12T07:09:43.897Z,8.49
2023-01-12T07:10:43.887Z,8.42
2023-01-12T07:11:43.879Z,8.41
2023-01-12T07:12:43.869Z,8.41
2023-01-12T07:13:43.841Z,8.41
2023-01-12T07:14:43.827Z,8.37
2023-01-12T07:15:43.856Z,8.41
2023-01-12T07:16:43.800Z,8.41
2023-01-12T07:17:43.806Z,8.41
2023-01-12T07:18:43.778Z,8.44
2023-01-12T07:19:43.768Z,8.37
2023-01-12T07:20:43.747Z,8.38
2023-01-12T07:21:43.885Z,8.37
2023-01-12T07:22:43.745Z,8.42
2023-01-12T07:23:43.763Z,8.38
2023-01-12T07:24:43.699Z,8.44
2023-01-12T07:25:43.687Z,8.42
2023-01-12T07:26:43.682Z,8.41
2023-01-12T07:27:43.675Z,8.44
2023-01-12T07:28:43.656Z,8.46
2023-01-12T07:29:43.628Z,8.52
2023-01-12T07:30:43.805Z,8.49
2023-01-12T07:31:43.610Z,8.53
2023-01-12T07:32:43.607Z,8.46
2023-01-12T07:33:43.584Z,8.51
2023-01-12T07:34:43.568Z,8.44
2023-01-12T07:35:43.554Z,8.46
2023-01-12T07:36:43.539Z,8.48
2023-01-12T07:37:43.697Z,8.49
2023-01-12T07:38:43.521Z,8.51
2023-01-12T07:39:43.500Z,8.55
2023-01-12T07:40:43.491Z,8.58
2023-01-12T07:41:43.480Z,8.53
2023-01-12T07:42:43.481Z,8.52
2023-01-12T07:43:43.456Z,8.53
2023-01-12T07:44:43.448Z,8.53
2023-01-12T07:45:43.425Z,8.58
2023-01-12T07:46:43.437Z,8.56
2023-01-12T07:47:43.412Z,8.60
2023-01-12T07:48:43.385Z,8.58
2023-01-12T07:49:43.372Z,8.58
2023-01-12T07:50:43.372Z,8.58
2023-01-12T07:51:43.355Z,8.60
2023-01-12T07:52:43.353Z,8.60
2023-01-12T07:53:43.337Z,8.56
2023-01-12T07:54:43.311Z,8.55
2023-01-12T07:55:43.291Z,8.49
2023-01-12T07:56:44.334Z,8.51
2023-01-12T07:57:43.278Z,8.51
2023-01-12T07:58:43.256Z,8.51
2023-01-12T07:59:43.242Z,8.52
2023-01-12T08:00:43.232Z,8.49
2023-01-12T08:01:43.270Z,8.51
2023-01-12T08:02:43.216Z,8.63
2023-01-12T08:03:43.189Z,8.55
2023-01-12T08:04:43.180Z,8.52
2023-01-12T08:05:43.219Z,8.52
2023-01-12T08:06:43.149Z,8.55
2023-01-12T08:07:43.156Z,8.55
2023-01-12T08:08:43.133Z,8.58
2023-01-12T08:09:43.133Z,8.51
2023-01-12T08:10:43.099Z,8.48
2023-01-12T08:11:43.090Z,8.48
2023-01-12T08:12:43.076Z,8.45
2023-01-12T08:13:43.087Z,8.46
2023-01-12T08:14:43.050Z,8.42
2023-01-12T08:15:43.032Z,8.45
2023-01-12T08:16:43.033Z,8.45
2023-01-12T08:17:43.019Z,8.42
2023-01-12T08:18:43.012Z,8.44
2023-01-12T08:19:42.976Z,8.44
2023-01-12T08:20:42.969Z,8.42
2023-01-12T08:21:42.957Z,8.49
2023-01-12T08:22:42.939Z,8.48
2023-01-12T08:23:42.950Z,8.46
2023-01-12T08:24:42.920Z,8.42
2023-01-12T08:25:42.920Z,8.45
2023-01-12T08:26:42.896Z,8.42
2023-01-12T08:27:42.887Z,8.44
2023-01-12T08:28:42.881Z,8.36
2023-01-12T08:29:42.853Z,8.44
2023-01-12T08:30:42.839Z,8.45
2023-01-12T08:31:42.826Z,8.37
2023-01-12T08:32:42.813Z,8.45
2023-01-12T08:33:42.821Z,8.42
2023-01-12T08:34:42.788Z,8.46
2023-01-12T08:35:42.769Z,8.45
2023-01-12T08:36:44.272Z,8.45
2023-01-12T08:37:42.750Z,8.48
2023-01-12T08:38:42.775Z,8.45
2023-01-12T08:39:42.722Z,8.34
2023-01-12T08:40:42.709Z,8.36
2023-01-12T08:41:42.715Z,8.36
2023-01-12T08:42:42.690Z,8.33
2023-01-12T08:43:42.684Z,8.37
2023-01-12T08:44:42.658Z,8.42
2023-01-12T08:45:42.655Z,8.44
2023-01-12T08:46:42.766Z,8.34
2023-01-12T08:47:42.623Z,8.37
2023-01-12T08:48:42.614Z,8.34
2023-01-12T08:49:42.588Z,8.33
2023-01-12T08:50:42.584Z,8.34
2023-01-12T08:51:42.560Z,8.31
2023-01-12T08:52:42.570Z,8.33
2023-01-12T08:53:42.557Z,8.30
2023-01-12T08:54:42.535Z,8.30
2023-01-12T08:55:42.514Z,8.26
2023-01-12T08:56:42.505Z,8.28
2023-01-12T08:57:42.513Z,8.31
2023-01-12T08:58:42.492Z,8.26
2023-01-12T08:59:42.464Z,8.31
2023-01-12T09:00:42.524Z,8.36
2023-01-12T09:01:42.522Z,8.33
2023-01-12T09:02:42.526Z,8.28
2023-01-12T09:03:42.435Z,8.34
2023-01-12T09:04:42.411Z,8.33
2023-01-12T09:05:42.388Z,8.30
2023-01-12T09:06:42.381Z,8.34
2023-01-12T09:07:42.362Z,8.33
2023-01-12T09:08:42.370Z,8.30
2023-01-12T09:09:42.345Z,8.31
2023-01-12T09:10:42.343Z,8.36
2023-01-12T09:11:42.352Z,8.34
2023-01-12T09:12:42.295Z,8.38
2023-01-12T09:13:42.313Z,8.37
2023-01-12T09:14:42.277Z,8.36
2023-01-12T09:15:48.252Z,8.38
2023-01-12T09:16:43.301Z,8.38
2023-01-12T09:17:42.238Z,8.38
2023-01-12T09:18:42.249Z,8.52
2023-01-12T09:19:42.211Z,8.52
2023-01-12T09:20:42.192Z,8.51
2023-01-12T09:21:42.176Z,8.49
2023-01-12T09:22:42.277Z,8.52
2023-01-12T09:23:42.179Z,8.53
2023-01-12T09:24:42.163Z,8.58
2023-01-12T09:25:42.127Z,8.56
2023-01-12T09:26:42.128Z,8.58
2023-01-12T09:27:42.096Z,8.58
2023-01-12T09:28:42.108Z,8.60
2023-01-12T09:29:42.113Z,8.64
2023-01-12T09:30:42.068Z,8.70
2023-01-12T09:31:42.136Z,8.70
2023-01-12T09:32:42.035Z,8.71
2023-01-12T09:33:42.054Z,8.76
2023-01-12T09:34:42.017Z,8.73
2023-01-12T09:35:41.992Z,8.81
2023-01-12T09:36:41.987Z,8.81
2023-01-12T09:37:41.962Z,8.84
2023-01-12T09:38:41.956Z,8.79
2023-01-12T09:39:41.956Z,8.76
2023-01-12T09:40:41.928Z,8.73
2023-01-12T09:41:41.918Z,8.74
2023-01-12T09:42:41.907Z,8.76
2023-01-12T09:43:41.888Z,8.73
2023-01-12T09:44:41.901Z,8.79
2023-01-12T09:45:41.948Z,8.78
2023-01-12T09:46:41.867Z,8.76
2023-01-12T09:47:41.839Z,8.79
2023-01-12T09:48:41.828Z,8.81
2023-01-12T09:49:41.823Z,8.74
2023-01-12T09:50:41.803Z,8.70
2023-01-12T09:51:41.780Z,8.73
2023-01-12T09:52:41.781Z,8.73
2023-01-12T09:53:41.757Z,8.71
2023-01-12T09:54:41.761Z,8.69
2023-01-12T09:55:41.749Z,8.71
2023-01-12T09:56:41.722Z,8.69
2023-01-12T09:57:41.703Z,8.69
2023-01-12T09:58:41.696Z,8.66
2023-01-12T09:59:41.691Z,8.66
2023-01-12T10:00:41.670Z,8.71
2023-01-12T10:01:41.839Z,8.64
2023-01-12T10:02:41.842Z,8.66
2023-01-12T10:03:41.739Z,8.71
2023-01-12T10:04:41.634Z,8.73
2023-01-12T10:05:41.612Z,8.73
2023-01-12T10:06:41.594Z,8.71
2023-01-12T10:07:42.273Z,8.71
2023-01-12T10:08:41.586Z,8.73
2023-01-12T10:09:41.564Z,8.73
2023-01-12T10:10:41.541Z,8.69
2023-01-12T10:11:41.536Z,8.70
2023-01-12T10:12:41.527Z,8.69
2023-01-12T10:13:41.512Z,8.70
2023-01-12T10:14:41.521Z,8.69
2023-01-12T10:15:41.494Z,8.70
2023-01-12T10:16:41.546Z,8.73
2023-01-12T10:17:50.833Z,8.73
2023-01-12T10:18:42.445Z,8.76
2023-01-12T10:19:41.480Z,8.76
2023-01-12T10:20:41.447Z,8.76
2023-01-12T10:21:41.401Z,8.78
2023-01-12T10:22:41.401Z,8.76
2023-01-12T10:23:41.381Z,8.74
2023-01-12T10:24:41.391Z,8.81
2023-01-12T10:25:41.361Z,8.81
2023-01-12T10:26:41.340Z,8.82
2023-01-12T10:27:41.349Z,8.78
2023-01-12T10:28:41.305Z,8.78
2023-01-12T10:29:41.299Z,8.79
2023-01-12T10:30:41.317Z,8.79
2023-01-12T10:31:41.371Z,8.76
2023-01-12T10:32:42.333Z,8.76
2023-01-12T10:33:41.269Z,8.73
2023-01-12T10:34:41.235Z,8.71
2023-01-12T10:35:41.231Z,8.79
2023-01-12T10:36:41.198Z,8.81
2023-01-12T10:37:41.185Z,8.84
2023-01-12T10:38:41.177Z,8.81
2023-01-12T10:39:41.179Z,8.85
2023-01-12T10:40:41.179Z,8.88
2023-01-12T10:41:41.135Z,8.91
2023-01-12T10:42:41.132Z,8.85
2023-01-12T10:43:41.120Z,8.89
2023-01-12T10:44:41.122Z,8.89
2023-01-12T10:45:41.120Z,8.94
2023-01-12T10:46:41.131Z,8.94
2023-01-12T10:47:41.071Z,9.02
2023-01-12T10:48:41.067Z,9.02
2023-01-12T10:49:41.108Z,9.06
2023-01-12T10:50:41.044Z,9.11
2023-01-12T10:51:41.008Z,9.19
2023-01-12T10:52:41.020Z,9.21
2023-01-12T10:53:40.980Z,9.25
2023-01-12T10:54:40.965Z,9.25
2023-01-12T10:55:40.970Z,9.32
2023-01-12T10:56:40.948Z,9.34
2023-01-12T10:57:40.927Z,9.32
2023-01-12T10:58:40.920Z,9.43
2023-01-12T10:59:40.900Z,9.48
2023-01-12T11:00:40.905Z,9.54
2023-01-12T11:01:41.047Z,9.65
2023-01-12T11:02:40.902Z,9.69
2023-01-12T11:03:40.858Z,9.65
2023-01-12T11:04:40.837Z,9.68
2023-01-12T11:05:40.907Z,9.65
2023-01-12T11:06:40.814Z,9.72
2023-01-12T11:07:40.797Z,9.73
2023-01-12T11:08:40.787Z,9.73
2023-01-12T11:09:40.815Z,9.77
2023-01-12T11:10:40.786Z,9.83
2023-01-12T11:11:40.748Z,9.79
2023-01-12T11:12:40.727Z,9.84
2023-01-12T11:13:40.720Z,9.87
2023-01-12T11:14:40.718Z,9.87
2023-01-12T11:15:40.715Z,9.87
2023-01-12T11:16:40.753Z,9.91
2023-01-12T11:17:40.692Z,9.92
2023-01-12T11:18:40.660Z,9.91
2023-01-12T11:19:40.642Z,9.91
2023-01-12T11:20:40.650Z,9.98
2023-01-12T11:21:40.651Z,10.04
2023-01-12T11:22:40.604Z,10.01
2023-01-12T11:23:40.599Z,9.99
2023-01-12T11:24:40.587Z,10.01
2023-01-12T11:25:40.605Z,9.99
2023-01-12T11:26:40.556Z,10.02
2023-01-12T11:27:40.561Z,9.97
2023-01-12T11:28:40.535Z,10.01
2023-01-12T11:29:40.516Z,10.07
2023-01-12T11:30:40.597Z,10.04
2023-01-12T11:31:40.495Z,10.07
2023-01-12T11:32:40.499Z,10.10
2023-01-12T11:33:40.471Z,10.05
2023-01-12T11:34:40.454Z,10.04
2023-01-12T11:35:40.468Z,9.99
2023-01-12T11:36:40.432Z,10.09
2023-01-12T11:37:40.444Z,10.10
2023-01-12T11:38:40.403Z,10.05
2023-01-12T11:39:40.397Z,10.07
2023-01-12T11:40:40.399Z,10.02
2023-01-12T11:41:40.368Z,10.04
2023-01-12T11:42:40.353Z,10.01
2023-01-12T11:43:40.348Z,10.07
2023-01-12T11:44:40.324Z,10.01
2023-01-12T11:45:40.313Z,10.04
2023-01-12T11:46:40.318Z,10.09
2023-01-12T11:47:41.917Z,10.12
2023-01-12T11:48:40.275Z,10.15
2023-01-12T11:49:40.260Z,10.13
2023-01-12T11:50:40.247Z,10.12
2023-01-12T11:51:40.255Z,10.13
2023-01-12T11:52:40.224Z,10.22
2023-01-12T11:53:41.554Z,10.19
2023-01-12T11:54:40.265Z,10.17
2023-01-12T11:55:40.193Z,10.16
2023-01-12T11:56:40.194Z,10.13
2023-01-12T11:57:40.166Z,10.07
2023-01-12T11:58:40.162Z,10.10
2023-01-12T11:59:41.636Z,10.15
2023-01-12T12:00:40.135Z,10.10
2023-01-12T12:01:40.128Z,10.07
2023-01-12T12:02:40.150Z,10.13
2023-01-12T12:03:40.202Z,10.17
2023-01-12T12:04:40.073Z,10.16
2023-01-12T12:05:41.394Z,10.17
2023-01-12T12:06:40.100Z,10.20
2023-01-12T12:07:40.032Z,10.20
2023-01-12T12:08:40.037Z,10.35
2023-01-12T12:09:40.058Z,10.37
2023-01-12T12:10:40.004Z,10.41
2023-01-12T12:11:41.868Z,10.38
2023-01-12T12:12:40.045Z,10.41
2023-01-12T12:13:39.960Z,10.46
2023-01-12T12:14:39.952Z,10.42
2023-01-12T12:15:39.983Z,10.46
2023-01-12T12:16:39.944Z,10.49
2023-01-12T12:17:41.784Z,10.51
2023-01-12T12:18:39.897Z,10.53
2023-01-12T12:19:39.893Z,10.54
2023-01-12T12:20:39.872Z,10.60
2023-01-12T12:21:39.872Z,10.57
2023-01-12T12:22:39.835Z,10.60
2023-01-12T12:23:41.473Z,10.60
2023-01-12T12:24:39.819Z,10.63
2023-01-12T12:25:39.818Z,10.71
2023-01-12T12:26:39.811Z,10.76
2023-01-12T12:27:39.771Z,10.72
2023-01-12T12:28:39.764Z,10.69
2023-01-12T12:29:41.147Z,10.71
2023-01-12T12:30:39.782Z,10.67
2023-01-12T12:31:39.741Z,10.68
2023-01-12T12:32:39.727Z,10.72
2023-01-12T12:33:39.694Z,10.75
2023-01-12T12:34:39.680Z,10.75
2023-01-12T12:35:41.339Z,10.74
2023-01-12T12:36:39.670Z,10.74
2023-01-12T12:37:39.640Z,10.72
2023-01-12T12:38:39.622Z,10.79
2023-01-12T12:39:39.610Z,10.78
2023-01-12T12:40:39.599Z,10.79
2023-01-12T12:41:41.400Z,10.78
2023-01-12T12:42:39.578Z,10.84
2023-01-12T12:43:39.563Z,10.78
2023-01-12T12:44:39.547Z,10.76
2023-01-12T12:45:39.538Z,10.79
2023-01-12T12:46:39.544Z,10.82
2023-01-12T12:47:41.906Z,10.86
2023-01-12T12:48:39.493Z,10.87
2023-01-12T12:49:39.483Z,10.87
2023-01-12T12:50:39.463Z,10.87
2023-01-12T12:51:39.464Z,10.87
2023-01-12T12:52:39.435Z,10.81
2023-01-12T12:53:41.705Z,10.87
2023-01-12T12:54:39.410Z,10.97
2023-01-12T12:55:39.400Z,10.92
2023-01-12T12:56:39.395Z,10.89
2023-01-12T12:57:39.392Z,10.90
2023-01-12T12:58:39.363Z,10.89
2023-01-12T12:59:39.344Z,10.89
2023-01-12T13:00:39.351Z,10.89
2023-01-12T13:01:39.538Z,10.90
2023-01-12T13:02:39.394Z,10.90
2023-01-12T13:03:39.294Z,10.86
2023-01-12T13:04:39.284Z,10.87
2023-01-12T13:05:39.263Z,10.87
2023-01-12T13:06:39.271Z,10.89
2023-01-12T13:07:39.239Z,10.94
2023-01-12T13:08:39.234Z,10.93
2023-01-12T13:09:39.224Z,11.00
2023-01-12T13:10:39.195Z,10.94
2023-01-12T13:11:39.221Z,10.93
2023-01-12T13:12:39.189Z,10.94
2023-01-12T13:13:39.192Z,10.97
2023-01-12T13:14:39.149Z,10.97